Time;durP1;ratioP1;P1;durP2;ratioP2;P2;SDS_P1;SDS_P2;PMS_P1;PMS_P2;Temp;Humidity;BMP_temperature;BMP_pressure;BME280_temperature;BME280_humidity;BME280_pressure;Samples;Min_cycle;Max_cycle;Signal;HPM_P1;HPM_P2
2022/11/05 00:10:12;;;;;;;2.90;1.85;;;;;;;6.71;100.00;101550.75;5136376;27;20119;-79
2022/11/05 00:18:08;;;;;;;2.20;2.08;;;;;;;6.52;100.00;101552.06;5136540;27;20131;-79
2022/11/05 00:20:35;;;;;;;4.22;2.70;;;;;;;6.49;100.00;101557.38;5135595;27;20050;-79
2022/11/05 00:25:59;;;;;;;4.25;2.40;;;;;;;6.43;100.00;101566.84;5135493;27;20101;-79
2022/11/05 00:28:27;;;;;;;4.22;2.40;;;;;;;6.31;100.00;101566.22;5135532;27;20111;-79
2022/11/05 00:31:03;;;;;;;3.90;2.40;;;;;;;6.22;100.00;101571.19;5133958;27;20135;-79
2022/11/05 00:33:30;;;;;;;3.63;2.15;;;;;;;6.21;100.00;101572.31;5136159;27;20631;-79
2022/11/05 00:35:56;;;;;;;2.88;2.25;;;;;;;6.17;100.00;101574.25;5135625;27;20432;-79
2022/11/05 00:38:23;;;;;;;3.72;2.22;;;;;;;6.13;100.00;101576.16;5136369;27;20123;-79
2022/11/05 00:40:49;;;;;;;2.15;1.88;;;;;;;6.06;100.00;101573.56;5135740;27;20506;-79
2022/11/05 00:46:01;;;;;;;2.42;2.22;;;;;;;6.06;100.00;101584.13;5136059;27;20119;-79
2022/11/05 00:51:12;;;;;;;2.95;2.55;;;;;;;5.97;100.00;101589.09;5135596;27;20123;-79
2022/11/05 00:53:38;;;;;;;2.75;2.20;;;;;;;5.91;100.00;101595.94;5135731;27;20534;-79
2022/11/05 00:56:05;;;;;;;2.60;2.25;;;;;;;5.91;100.00;101601.22;5135908;27;20119;-79
2022/11/05 00:58:31;;;;;;;5.55;2.17;;;;;;;5.91;100.00;101598.59;5135879;27;20547;-79
2022/11/05 01:00:59;;;;;;;3.00;2.58;;;;;;;5.89;100.00;101604.25;5135433;27;20126;-79
2022/11/05 01:03:28;;;;;;;3.00;2.80;;;;;;;5.84;100.00;101599.34;5135789;27;20115;-79
2022/11/05 01:06:07;;;;;;;4.65;2.90;;;;;;;5.77;100.00;101607.28;5134750;27;20126;-79
2022/11/05 01:08:34;;;;;;;2.97;2.63;;;;;;;5.73;100.00;101606.56;5135546;27;20137;-79
2022/11/05 01:11:10;;;;;;;4.15;2.47;;;;;;;5.72;100.00;101607.69;5133820;27;20105;-79
2022/11/05 01:13:38;;;;;;;2.47;2.35;;;;;;;5.68;100.00;101609.59;5135665;27;20595;-80
2022/11/05 01:16:09;;;;;;;2.33;2.13;;;;;;;5.64;100.00;101603.56;5134785;27;20043;-79
2022/11/05 01:18:37;;;;;;;4.05;2.40;;;;;;;5.54;99.98;101610.41;5135487;27;20463;-80
2022/11/05 01:21:12;;;;;;;2.28;2.17;;;;;;;5.46;100.00;101616.09;5134846;27;20458;-79
2022/11/05 01:23:38;;;;;;;2.30;2.10;;;;;;;5.48;100.00;101617.22;5135333;27;20045;-79
2022/11/05 01:26:04;;;;;;;3.00;2.20;;;;;;;5.44;99.83;101616.50;5134981;27;20152;-79
2022/11/05 01:28:31;;;;;;;2.10;2.00;;;;;;;5.34;99.86;101610.09;5135506;27;20067;-79
2022/11/05 01:30:57;;;;;;;3.03;1.90;;;;;;;5.32;100.00;101609.72;5134865;27;20530;-79
2022/11/05 01:33:24;;;;;;;4.75;2.17;;;;;;;5.32;99.70;101612.38;5134495;27;20139;-79
2022/11/05 01:35:50;;;;;;;4.32;1.90;;;;;;;5.32;100.00;101616.88;5133728;27;20053;-79
2022/11/05 01:38:17;;;;;;;5.95;2.10;;;;;;;5.30;100.00;101619.91;5135365;27;20058;-79
2022/11/05 01:40:44;;;;;;;3.22;2.13;;;;;;;5.25;100.00;101622.94;5134761;27;20050;-79
2022/11/05 01:43:16;;;;;;;1.90;1.80;;;;;;;5.23;100.00;101622.56;5135201;27;20047;-79
2022/11/05 01:45:48;;;;;;;3.58;2.13;;;;;;;5.20;100.00;101625.97;5135054;27;20126;-78
2022/11/05 01:48:18;;;;;;;2.00;1.83;;;;;;;5.21;100.00;101627.47;5134370;27;20048;-78
2022/11/05 01:50:52;;;;;;;2.10;1.92;;;;;;;5.21;100.00;101619.56;5133660;27;20532;-80
2022/11/05 01:53:40;;;;;;;6.45;1.70;;;;;;;5.15;100.00;101622.97;5134953;27;20052;-79
2022/11/05 01:56:11;;;;;;;2.92;1.70;;;;;;;5.13;100.00;101626.00;5135028;27;20047;-79
2022/11/05 01:58:44;;;;;;;;;;;;;;;5.09;100.00;101616.59;5135328;27;20123;-79
2022/11/05 02:01:11;;;;;;;;;;;;;;;5.06;100.00;101617.34;5135720;27;20018;-81
2022/11/05 02:03:38;;;;;;;1.70;1.60;;;;;;;5.05;100.00;101613.94;5134549;27;19928;-81
2022/11/05 02:06:08;;;;;;;2.05;1.85;;;;;;;5.06;100.00;101604.91;5133224;27;20575;-80
2022/11/05 02:08:52;;;;;;;2.83;2.17;;;;;;;5.05;100.00;101606.03;5134545;27;20044;-80
2022/11/05 02:11:19;;;;;;;1.92;1.83;;;;;;;5.03;100.00;101605.66;5132558;27;20126;-80
2022/11/05 02:13:46;;;;;;;3.95;2.17;;;;;;;5.05;100.00;101602.63;5133837;27;20051;-80
2022/11/05 02:16:47;;;;;;;4.18;2.20;;;;;;;5.01;100.00;101611.31;5133152;27;20122;-80
2022/11/05 02:19:51;;;;;;;2.15;1.98;;;;;;;4.98;100.00;101604.16;5134299;27;20123;-80
2022/11/05 02:22:41;;;;;;;7.88;2.75;;;;;;;4.97;100.00;101601.88;5134497;27;20160;-80
2022/11/05 02:25:24;;;;;;;2.78;2.33;;;;;;;4.93;100.00;101599.25;5132107;27;20499;-80
2022/11/05 02:28:09;;;;;;;2.65;2.33;;;;;;;4.92;100.00;101592.47;5133969;27;20054;-79
2022/11/05 02:30:52;;;;;;;6.07;2.42;;;;;;;4.88;100.00;101599.63;5133104;27;20122;-80
2022/11/05 02:33:46;;;;;;;2.75;2.20;;;;;;;4.83;100.00;101593.97;5134329;27;20047;-79
2022/11/05 02:36:53;;;;;;;3.63;2.33;;;;;;;4.85;100.00;101602.28;5134553;27;20050;-79
2022/11/05 02:39:50;;;;;;;2.63;2.25;;;;;;;4.77;100.00;101604.19;5134257;27;20043;-80
2022/11/05 02:42:44;;;;;;;4.50;2.38;;;;;;;4.77;100.00;101596.28;5134395;27;20054;-80
2022/11/05 02:45:41;;;;;;;4.22;2.60;;;;;;;4.75;100.00;101601.16;5133715;27;20559;-80
2022/11/05 02:48:35;;;;;;;2.92;2.15;;;;;;;4.75;100.00;101598.53;5134050;27;20542;-80
2022/11/05 02:51:32;;;;;;;5.53;2.67;;;;;;;4.73;100.00;101606.06;5134259;27;20189;-79
2022/11/05 02:54:07;;;;;;;4.72;3.22;;;;;;;4.67;100.00;101595.13;5132243;27;20085;-80
2022/11/05 02:56:38;;;;;;;2.85;2.65;;;;;;;4.66;100.00;101595.53;5134221;27;20055;-80
2022/11/05 02:59:04;;;;;;;3.97;2.42;;;;;;;4.65;100.00;101591.38;5133492;27;20134;-78
2022/11/05 03:01:31;;;;;;;3.30;2.70;;;;;;;4.64;100.00;101600.41;5133745;27;20464;-79
2022/11/05 03:04:05;;;;;;;10.18;2.47;;;;;;;4.60;100.00;101589.09;5133888;27;20051;-79
2022/11/05 03:06:39;;;;;;;3.33;2.85;;;;;;;4.59;100.00;101593.63;5134029;27;20073;-79
2022/11/05 03:09:12;;;;;;;5.53;2.70;;;;;;;4.57;100.00;101597.78;5133954;27;20134;-79
2022/11/05 03:11:52;;;;;;;3.17;2.67;;;;;;;4.50;100.00;101592.50;5133920;27;20250;-79
2022/11/05 03:14:28;;;;;;;3.47;3.15;;;;;;;4.50;100.00;101595.88;5133612;27;20104;-79
2022/11/05 03:17:16;;;;;;;3.88;2.63;;;;;;;4.51;100.00;101591.38;5133970;27;20047;-79
2022/11/05 03:20:02;;;;;;;4.57;2.95;;;;;;;4.47;100.00;101587.97;5133907;27;20048;-79
2022/11/05 03:22:36;;;;;;;5.18;2.92;;;;;;;4.37;100.00;101591.38;5134187;27;20093;-79
2022/11/05 03:25:11;;;;;;;3.30;3.00;;;;;;;4.32;100.00;101595.88;5136985;27;20127;-78
2022/11/05 03:27:41;;;;;;;3.42;3.13;;;;;;;4.35;100.00;101597.78;5137722;27;20050;-79
2022/11/05 03:30:10;;;;;;;4.22;2.95;;;;;;;4.32;100.00;101598.53;5136628;27;20044;-79
2022/11/05 03:32:40;;;;;;;3.20;2.90;;;;;;;4.27;100.00;101598.91;5137225;27;20538;-80
2022/11/05 03:35:20;;;;;;;4.53;3.33;;;;;;;4.28;100.00;101607.56;5137343;27;20043;-78
2022/11/05 03:37:52;;;;;;;11.82;3.53;;;;;;;4.25;100.00;101603.78;5136752;27;20131;-78
2022/11/05 03:40:21;;;;;;;4.18;3.20;;;;;;;4.25;100.00;101608.31;5137289;27;20050;-79
2022/11/05 03:42:53;;;;;;;4.35;3.28;;;;;;;4.22;100.00;101612.44;5136750;27;20079;-79
2022/11/05 03:45:25;;;;;;;5.70;3.45;;;;;;;4.22;100.00;101601.91;5136908;27;20050;-78
2022/11/05 03:47:56;;;;;;;3.78;3.45;;;;;;;4.22;100.00;101609.81;5136846;27;20127;-78
2022/11/05 03:50:31;;;;;;;4.23;3.80;;;;;;;4.19;100.00;101602.66;5137307;27;20114;-79
2022/11/05 03:53:19;;;;;;;4.05;3.25;;;;;;;4.22;100.00;101609.06;5136722;27;20054;-79
2022/11/05 03:56:00;;;;;;;3.80;3.42;;;;;;;4.20;100.00;101612.06;5137038;27;20040;-77
2022/11/05 03:58:29;;;;;;;5.22;3.90;;;;;;;4.23;100.00;101618.47;5136719;27;20085;-79
2022/11/05 04:00:59;;;;;;;4.78;3.80;;;;;;;4.22;100.00;101615.06;5136851;27;20118;-78
2022/11/05 04:03:26;;;;;;;7.03;4.13;;;;;;;4.21;100.00;101618.09;5137505;27;20123;-79
2022/11/05 04:14:09;;;;;;;5.10;4.18;;;;;;;4.22;100.00;101620.34;5136334;27;20097;-80
2022/11/05 04:24:06;;;;;;;5.43;4.15;;;;;;;4.28;100.00;101626.00;5136948;27;20067;-79
2022/11/05 04:24:52;;;;;;;4.15;3.75;;;;;;;4.39;100.00;101620.75;5136085;27;20113;-78
2022/11/05 04:27:18;;;;;;;7.43;3.65;;;;;;;4.45;100.00;101625.25;5136159;27;20050;-78
2022/11/05 04:32:29;;;;;;;5.20;4.22;;;;;;;4.60;100.00;101624.16;5136607;27;20129;-78
2022/11/05 04:34:56;;;;;;;10.18;4.53;;;;;;;4.64;100.00;101622.28;5134262;27;20052;-78
2022/11/05 04:37:22;;;;;;;6.53;4.53;;;;;;;4.71;100.00;101626.78;5136574;27;20571;-78
2022/11/05 04:39:48;;;;;;;4.78;4.38;;;;;;;4.77;100.00;101627.19;5136056;27;20040;-78
2022/11/05 04:42:15;;;;;;;6.13;4.55;;;;;;;4.78;100.00;101631.31;5135821;27;20079;-78
2022/11/05 04:44:41;;;;;;;11.77;4.72;;;;;;;4.78;100.00;101632.06;5136447;27;20043;-78
2022/11/05 04:47:08;;;;;;;5.55;4.40;;;;;;;4.78;100.00;101631.31;5135874;27;20496;-78
2022/11/05 04:49:34;;;;;;;5.85;4.13;;;;;;;4.80;100.00;101629.78;5136234;27;20115;-78
2022/11/05 04:52:00;;;;;;;10.63;5.00;;;;;;;4.84;100.00;101635.81;5136137;27;20471;-78
2022/11/05 04:54:27;;;;;;;6.68;4.20;;;;;;;4.86;100.00;101640.72;5136488;27;20051;-78
2022/11/05 04:56:53;;;;;;;7.40;4.45;;;;;;;4.88;100.00;101638.47;5135369;27;20514;-78
2022/11/05 04:59:19;;;;;;;5.90;4.22;;;;;;;4.89;100.00;101640.72;5135944;27;20114;-78
2022/11/05 05:01:50;;;;;;;7.55;4.28;;;;;;;4.96;100.00;101639.97;5135808;27;20518;-77
2022/11/05 05:04:17;;;;;;;5.88;4.35;;;;;;;5.00;100.00;101644.09;5136371;27;20047;-78
2022/11/05 05:06:43;;;;;;;10.18;4.95;;;;;;;5.03;100.00;101638.06;5136012;27;20130;-79
2022/11/05 05:09:10;;;;;;;9.57;4.93;;;;;;;5.05;100.00;101640.34;5135833;27;20138;-80
2022/11/05 05:11:36;;;;;;;7.30;4.55;;;;;;;5.06;100.00;101639.22;5135508;27;20164;-77
2022/11/05 05:14:02;;;;;;;5.38;4.63;;;;;;;5.08;100.00;101631.66;5135585;27;20455;-77
2022/11/05 05:16:29;;;;;;;9.20;4.90;;;;;;;5.11;100.00;101636.19;5135703;27;20123;-80
2022/11/05 05:18:55;;;;;;;6.78;4.80;;;;;;;5.13;100.00;101646.38;5134152;27;20101;-78
2022/11/05 05:21:37;;;;;;;5.65;4.50;;;;;;;5.16;100.00;101642.97;5117389;27;20127;-77
2022/11/05 05:24:13;;;;;;;5.72;4.50;;;;;;;5.19;100.00;101640.31;5135551;27;20048;-77
2022/11/05 05:26:42;;;;;;;6.40;4.80;;;;;;;5.20;100.00;101644.44;5135168;27;20071;-78
2022/11/05 05:29:09;;;;;;;5.07;4.57;;;;;;;5.20;100.00;101647.09;5135353;27;20484;-78
2022/11/05 05:31:36;;;;;;;5.22;4.32;;;;;;;5.20;100.00;101638.44;5135693;27;20043;-78
2022/11/05 05:34:04;;;;;;;8.05;4.97;;;;;;;5.17;100.00;101637.31;5135061;27;20052;-77
2022/11/05 05:36:30;;;;;;;8.15;4.75;;;;;;;5.14;100.00;101635.44;5135772;27;20067;-77
2022/11/05 05:38:57;;;;;;;4.93;4.43;;;;;;;5.14;100.00;101639.94;5135177;27;20043;-78
2022/11/05 05:41:23;;;;;;;5.05;4.63;;;;;;;5.11;100.00;101644.09;5134876;27;20131;-78
2022/11/05 05:43:50;;;;;;;5.75;4.60;;;;;;;5.06;100.00;101649.00;5135114;27;20118;-78
2022/11/05 05:46:18;;;;;;;5.88;4.43;;;;;;;5.02;100.00;101647.13;5134631;27;20039;-78
2022/11/05 05:48:49;;;;;;;5.07;4.68;;;;;;;4.96;100.00;101651.28;5134992;27;20470;-78
2022/11/05 05:51:16;;;;;;;9.05;4.85;;;;;;;4.92;100.00;101653.16;5135625;27;20044;-78
2022/11/05 05:53:43;;;;;;;9.27;5.40;;;;;;;4.89;100.00;101653.91;5134865;27;20120;-78
2022/11/05 05:56:13;;;;;;;7.90;5.18;;;;;;;4.87;100.00;101661.44;5133853;27;20044;-78
2022/11/05 05:58:40;;;;;;;5.28;4.78;;;;;;;4.85;100.00;101663.72;5135119;27;20074;-77
2022/11/05 06:01:10;;;;;;;5.00;4.57;;;;;;;4.82;100.00;101658.44;5134784;27;20131;-78
2022/11/05 06:03:44;;;;;;;4.75;4.22;;;;;;;4.78;100.00;101665.63;5134902;27;20043;-77
2022/11/05 06:06:12;;;;;;;5.43;4.35;;;;;;;4.77;100.00;101664.09;5135046;27;20068;-78
2022/11/05 06:08:38;;;;;;;4.25;3.92;;;;;;;4.74;100.00;101667.50;5134402;27;20492;-80
2022/11/05 06:11:05;;;;;;;3.90;3.60;;;;;;;4.73;100.00;101672.03;5134719;27;20543;-79
2022/11/05 06:13:32;;;;;;;6.25;3.83;;;;;;;4.71;100.00;101671.63;5134978;27;20051;-79
2022/11/05 06:16:01;;;;;;;4.70;3.58;;;;;;;4.72;100.00;101669.75;5134736;27;20270;-79
2022/11/05 06:18:29;;;;;;;4.35;3.70;;;;;;;4.71;100.00;101673.53;5134690;27;20044;-77
2022/11/05 06:21:00;;;;;;;5.30;3.70;;;;;;;4.68;100.00;101673.13;5134603;27;20071;-79
2022/11/05 06:23:29;;;;;;;3.92;3.63;;;;;;;4.67;100.00;101679.53;5134558;27;20520;-80
2022/11/05 06:26:00;;;;;;;5.30;3.58;;;;;;;4.69;100.00;101681.81;5134189;27;20109;-79
2022/11/05 06:28:28;;;;;;;5.45;3.85;;;;;;;4.71;100.00;101678.78;5134974;27;20063;-79
2022/11/05 06:30:55;;;;;;;3.80;3.50;;;;;;;4.75;100.00;101680.31;5134220;27;20054;-79
2022/11/05 06:33:22;;;;;;;5.57;3.80;;;;;;;4.79;100.00;101680.31;5132919;27;20052;-80
2022/11/05 06:35:49;;;;;;;4.18;3.78;;;;;;;4.86;100.00;101677.66;5134302;27;20114;-80
2022/11/05 06:38:15;;;;;;;5.50;3.90;;;;;;;4.89;100.00;101676.91;5134123;27;20043;-80
2022/11/05 06:40:41;;;;;;;6.72;3.70;;;;;;;4.91;100.00;101679.91;5134602;27;20127;-79
2022/11/05 06:43:08;;;;;;;4.55;4.25;;;;;;;4.97;100.00;101681.06;5134078;27;20047;-79
2022/11/05 06:45:35;;;;;;;6.72;3.97;;;;;;;5.02;100.00;101680.69;5134483;27;20044;-79
2022/11/05 06:48:01;;;;;;;4.60;4.20;;;;;;;5.07;100.00;101679.53;5134367;27;20046;-79
2022/11/05 06:50:28;;;;;;;5.82;4.15;;;;;;;5.11;100.00;101693.50;5134659;27;20050;-79
2022/11/05 06:52:59;;;;;;;5.60;4.25;;;;;;;5.11;100.00;101691.63;5133692;27;20525;-79
2022/11/05 06:55:28;;;;;;;7.60;4.17;;;;;;;5.16;100.00;101687.84;5133085;27;20055;-80
2022/11/05 06:57:55;;;;;;;7.75;4.20;;;;;;;5.17;100.00;101686.72;5136386;27;20484;-78
2022/11/05 07:00:22;;;;;;;5.50;4.50;;;;;;;5.20;100.00;101699.16;5138078;27;20136;-78
2022/11/05 07:02:49;;;;;;;5.95;4.20;;;;;;;5.20;100.00;101705.16;5137746;27;20067;-77
2022/11/05 07:05:16;;;;;;;5.32;4.43;;;;;;;5.22;100.00;101696.84;5138362;27;20046;-79
2022/11/05 07:07:43;;;;;;;7.60;4.80;;;;;;;5.25;100.00;101711.94;5137729;27;20489;-79
2022/11/05 07:10:15;;;;;;;9.15;4.47;;;;;;;5.25;100.00;101707.41;5137761;27;20039;-77
2022/11/05 07:12:42;;;;;;;;;;;;;;;5.25;100.00;101704.78;5138419;27;20547;-79
2022/11/05 07:15:10;;;;;;;5.93;4.03;;;;;;;5.26;100.00;101702.91;5137625;27;19927;-78
2022/11/05 07:17:38;;;;;;;8.55;5.13;;;;;;;5.28;100.00;101713.84;5137617;27;20131;-78
2022/11/05 07:20:06;;;;;;;10.65;4.57;;;;;;;5.28;100.00;101709.31;5137289;27;20093;-77
2022/11/05 07:22:34;;;;;;;5.72;4.50;;;;;;;5.31;100.00;101718.34;5137208;27;20118;-78
2022/11/05 07:25:01;;;;;;;5.55;4.72;;;;;;;5.34;100.00;101709.69;5136888;27;20143;-78
2022/11/05 07:27:27;;;;;;;5.20;4.78;;;;;;;5.36;100.00;101708.16;5137563;27;20127;-78
2022/11/05 07:29:54;;;;;;;5.93;5.38;;;;;;;5.39;100.00;101705.91;5137006;27;20142;-78
2022/11/05 07:32:20;;;;;;;5.40;4.90;;;;;;;5.44;100.00;101708.16;5137530;27;20083;-78
2022/11/05 07:34:47;;;;;;;5.68;5.10;;;;;;;5.47;100.00;101710.03;5137349;27;20519;-78
2022/11/05 07:37:15;;;;;;;6.03;5.43;;;;;;;5.50;100.00;101712.69;5136906;27;20047;-78
2022/11/05 07:39:42;;;;;;;10.43;6.00;;;;;;;5.53;100.00;101709.28;5137998;27;20160;-78
2022/11/05 07:42:12;;;;;;;12.88;5.65;;;;;;;5.59;100.00;101714.94;5137831;27;20071;-79
2022/11/05 07:44:38;;;;;;;7.82;5.50;;;;;;;5.63;100.00;101711.13;5137112;27;20184;-79
2022/11/05 07:47:05;;;;;;;8.05;5.55;;;;;;;5.70;100.00;101718.28;5135717;27;20119;-79
2022/11/05 07:49:31;;;;;;;8.38;6.10;;;;;;;5.75;100.00;101715.25;5135901;27;20211;-79
2022/11/05 07:51:58;;;;;;;6.25;5.43;;;;;;;5.81;100.00;101729.59;5135381;27;20101;-78
2022/11/05 07:54:25;;;;;;;9.85;6.07;;;;;;;5.85;100.00;101732.97;5136709;27;20043;-79
2022/11/05 07:56:52;;;;;;;13.05;6.13;;;;;;;5.91;100.00;101720.16;5137764;27;20043;-77
2022/11/05 07:59:18;;;;;;;7.00;6.30;;;;;;;5.96;100.00;101717.09;5137689;27;20538;-80
2022/11/05 08:01:44;;;;;;;7.00;6.30;;;;;;;6.00;100.00;101726.50;5137533;27;20480;-79
2022/11/05 08:04:11;;;;;;;7.85;6.25;;;;;;;6.06;100.00;101721.59;5137334;27;20047;-80
2022/11/05 08:06:38;;;;;;;7.35;6.10;;;;;;;6.12;100.00;101722.69;5137714;27;20114;-84
2022/11/05 08:09:04;;;;;;;6.85;6.15;;;;;;;6.18;100.00;101729.09;5136825;27;20119;-81
2022/11/05 08:11:31;;;;;;;12.25;6.40;;;;;;;6.24;100.00;101724.91;5137383;27;20075;-79
2022/11/05 08:13:57;;;;;;;11.60;5.95;;;;;;;6.31;100.00;101724.13;5137682;27;20059;-78
2022/11/05 08:16:23;;;;;;;13.07;6.03;;;;;;;6.37;100.00;101729.78;5137447;27;20490;-80
2022/11/05 08:18:50;;;;;;;6.85;6.15;;;;;;;6.43;100.00;101720.25;5136693;27;20482;-79
2022/11/05 08:21:16;;;;;;;8.50;6.20;;;;;;;6.49;100.00;101721.38;5137567;27;20071;-79
2022/11/05 08:23:43;;;;;;;8.48;6.65;;;;;;;6.56;100.00;101723.97;5137338;27;20050;-80
2022/11/05 08:26:09;;;;;;;11.77;6.35;;;;;;;6.60;100.00;101722.81;5135592;27;20114;-80
2022/11/05 08:28:36;;;;;;;9.60;6.35;;;;;;;6.66;100.00;101723.16;5137261;27;20118;-78
2022/11/05 08:31:02;;;;;;;12.80;6.13;;;;;;;6.75;100.00;101723.50;5137440;27;20126;-79
2022/11/05 08:33:30;;;;;;;10.60;6.07;;;;;;;6.82;100.00;101718.13;5136765;27;20115;-80
2022/11/05 08:36:01;;;;;;;15.05;6.45;;;;;;;6.91;100.00;101728.28;5137476;27;20059;-78
2022/11/05 08:38:28;;;;;;;8.60;6.70;;;;;;;6.98;100.00;101721.03;5137035;27;20147;-77
2022/11/05 08:40:56;;;;;;;7.50;5.93;;;;;;;7.03;100.00;101725.16;5136755;27;20127;-78
2022/11/05 08:43:23;;;;;;;9.77;5.90;;;;;;;7.09;100.00;101725.50;5136625;27;20047;-79
2022/11/05 08:45:49;;;;;;;13.32;6.50;;;;;;;7.15;100.00;101730.00;5136657;27;20048;-79
2022/11/05 08:48:17;;;;;;;10.90;6.32;;;;;;;7.20;100.00;101726.88;5136388;27;20078;-80
2022/11/05 08:50:45;;;;;;;7.18;6.05;;;;;;;7.25;100.00;101733.66;5136898;27;20488;-78
2022/11/05 08:53:13;;;;;;;7.88;5.95;;;;;;;7.32;100.00;101734.34;5136620;27;20695;-80
2022/11/05 08:55:40;;;;;;;10.35;5.70;;;;;;;7.38;100.00;101732.03;5135117;27;20051;-81
2022/11/05 08:58:11;;;;;;;11.93;6.82;;;;;;;7.45;100.00;101728.56;5135165;27;20078;-81
2022/11/05 09:00:38;;;;;;;11.68;6.05;;;;;;;7.50;100.00;101738.75;5136724;27;20050;-82
2022/11/05 09:03:07;;;;;;;5.85;5.25;;;;;;;7.58;100.00;101742.84;5136053;27;20036;-80
2022/11/05 09:05:36;;;;;;;8.07;5.90;;;;;;;7.64;100.00;101743.88;5136234;27;20043;-81
2022/11/05 09:08:11;;;;;;;9.75;5.78;;;;;;;7.73;100.00;101743.44;5136409;27;20134;-79
2022/11/05 09:10:38;;;;;;;9.20;5.80;;;;;;;7.78;100.00;101735.78;5136296;27;20641;-78
2022/11/05 09:13:06;;;;;;;7.20;6.03;;;;;;;7.82;100.00;101733.88;5135062;27;20089;-79
2022/11/05 09:15:34;;;;;;;7.85;4.95;;;;;;;7.87;100.00;101735.31;5135943;27;20053;-79
2022/11/05 09:18:04;;;;;;;14.27;6.32;;;;;;;7.90;100.00;101734.53;5135841;27;20130;-79
2022/11/05 09:20:32;;;;;;;8.48;6.03;;;;;;;7.93;100.00;101728.44;5136293;27;20054;-79
2022/11/05 09:22:58;;;;;;;11.20;6.40;;;;;;;8.00;100.00;101733.63;5134911;27;20115;-79
2022/11/05 09:25:25;;;;;;;7.40;5.78;;;;;;;8.07;100.00;101736.22;5135818;27;20132;-79
2022/11/05 09:27:52;;;;;;;10.93;6.18;;;;;;;8.13;99.71;101736.53;5134846;27;20130;-79
2022/11/05 09:30:18;;;;;;;7.80;5.82;;;;;;;8.21;99.29;101730.00;5135845;27;20190;-79
2022/11/05 09:32:45;;;;;;;11.90;6.50;;;;;;;8.28;98.63;101733.31;5135067;27;20094;-79
2022/11/05 09:35:11;;;;;;;8.73;5.82;;;;;;;8.36;98.31;101736.66;5135962;27;20047;-79
2022/11/05 09:37:38;;;;;;;9.40;6.15;;;;;;;8.46;98.43;101734.97;5132631;27;20071;-78
2022/11/05 09:40:05;;;;;;;8.73;5.90;;;;;;;8.57;98.11;101735.59;5133848;27;20468;-79
2022/11/05 09:42:38;;;;;;;13.05;6.68;;;;;;;8.67;97.81;101740.00;5135310;27;20602;-79
2022/11/05 09:45:15;;;;;;;11.95;6.13;;;;;;;8.69;98.04;101746.41;5135001;27;20118;-79
2022/11/05 09:47:48;;;;;;;7.55;5.70;;;;;;;8.70;97.22;101736.53;5135059;27;20123;-78
2022/11/05 09:50:29;;;;;;;8.32;5.70;;;;;;;8.79;97.98;101744.00;5133933;27;20075;-78
2022/11/05 09:52:56;;;;;;;9.52;6.20;;;;;;;8.83;97.74;101744.69;5133915;27;20400;-79
2022/11/05 09:55:36;;;;;;;9.63;6.80;;;;;;;8.85;97.95;101743.13;5135483;27;20052;-79
2022/11/05 09:58:12;;;;;;;6.43;5.65;;;;;;;8.89;96.87;101756.34;5135697;27;20128;-79
2022/11/05 10:00:39;;;;;;;10.57;5.93;;;;;;;8.92;96.69;101751.00;5134731;27;20069;-78
2022/11/05 10:03:14;;;;;;;9.18;5.63;;;;;;;9.00;96.50;101755.03;5135249;27;20047;-79
2022/11/05 10:05:42;;;;;;;11.88;6.47;;;;;;;9.07;97.31;101759.50;5135546;27;20063;-78
2022/11/05 10:08:27;;;;;;;9.07;5.82;;;;;;;9.21;97.52;101766.47;5134721;27;20039;-80
2022/11/05 10:11:09;;;;;;;7.90;5.90;;;;;;;9.43;96.99;101762.31;5135551;27;20078;-78
2022/11/05 10:13:41;;;;;;;10.95;6.80;;;;;;;9.60;97.16;101761.22;5135420;27;20096;-78
2022/11/05 10:16:10;;;;;;;;;;;;;;;9.68;97.36;101762.59;5135162;27;20484;-79
2022/11/05 10:18:40;;;;;;;6.43;4.63;;;;;;;9.71;95.40;101761.03;5135030;27;19934;-79
2022/11/05 10:21:15;;;;;;;7.82;4.60;;;;;;;9.77;94.32;101750.69;5135339;27;20046;-78
2022/11/05 10:23:43;;;;;;;5.50;4.78;;;;;;;9.86;93.99;101767.59;5135103;27;20520;-79
2022/11/05 10:26:15;;;;;;;6.32;4.93;;;;;;;9.96;93.63;101768.56;5134652;27;20123;-79
2022/11/05 10:28:42;;;;;;;;;;;;;;;10.02;94.54;101770.31;5135251;27;20101;-78
2022/11/05 10:31:15;;;;;;;6.50;3.90;;;;;;;10.05;93.16;101766.09;5134093;27;20022;-79
2022/11/05 10:33:58;;;;;;;10.10;4.35;;;;;;;10.07;91.70;101771.75;5134571;27;20067;-77
2022/11/05 10:36:28;;;;;;;9.27;4.78;;;;;;;10.15;92.63;101773.09;5134890;27;20036;-79
2022/11/05 10:39:16;;;;;;;5.90;4.22;;;;;;;10.19;92.56;101776.47;5134500;27;20122;-80
2022/11/05 10:42:07;;;;;;;6.68;4.28;;;;;;;10.21;91.42;101771.50;5135055;27;20044;-79
2022/11/05 10:44:48;;;;;;;7.00;4.47;;;;;;;10.25;90.70;101761.53;5132433;27;20483;-79
2022/11/05 10:47:34;;;;;;;5.57;4.05;;;;;;;10.29;90.16;101762.22;5134823;27;20046;-78
2022/11/05 10:50:14;;;;;;;5.30;4.40;;;;;;;10.30;89.84;101765.63;5132710;27;20549;-84
2022/11/05 10:53:01;;;;;;;5.78;4.20;;;;;;;10.33;89.83;101760.22;5132376;27;20565;-85
2022/11/05 10:55:31;;;;;;;7.18;4.03;;;;;;;10.36;88.77;101769.28;5134639;27;20135;-85
2022/11/05 10:58:14;;;;;;;9.18;4.15;;;;;;;10.37;88.99;101768.13;5134327;27;20502;-82
2022/11/05 11:00:43;;;;;;;9.30;4.00;;;;;;;10.40;87.87;101761.25;5134564;27;20101;-83
2022/11/05 11:03:42;;;;;;;5.82;3.78;;;;;;;10.46;88.62;101768.31;5134280;27;20558;-84
2022/11/05 11:06:48;;;;;;;7.30;3.88;;;;;;;10.48;88.02;101767.88;5134959;27;20075;-86
2022/11/05 11:09:30;;;;;;;7.90;4.47;;;;;;;10.47;86.96;101775.13;5090739;28;20124;-85
2022/11/05 11:12:01;;;;;;;5.82;4.20;;;;;;;10.47;86.51;101774.38;5090948;28;20132;-84
2022/11/05 11:14:28;;;;;;;9.60;4.63;;;;;;;10.45;85.43;101771.38;5073767;28;20045;-82
2022/11/05 11:17:25;;;;;;;9.85;4.50;;;;;;;10.50;86.67;101770.88;5073250;28;20076;-84
2022/11/05 11:20:16;;;;;;;5.07;4.18;;;;;;;10.50;86.00;101763.66;5090804;28;20148;-80
2022/11/05 11:23:13;;;;;;;6.47;3.92;;;;;;;10.49;85.66;101767.47;5091662;28;20048;-79
2022/11/05 11:25:56;;;;;;;4.63;4.22;;;;;;;10.50;84.96;101771.63;5091788;28;20053;-84
2022/11/05 11:28:26;;;;;;;6.80;4.20;;;;;;;10.57;85.39;101770.75;5091103;28;20261;-83
2022/11/05 11:31:12;;;;;;;5.32;4.32;;;;;;;10.59;85.56;101769.16;5090714;28;20504;-84
2022/11/05 11:33:42;;;;;;;6.03;4.43;;;;;;;10.63;84.76;101769.84;5091238;28;20106;-84
2022/11/05 11:36:10;;;;;;;5.32;3.97;;;;;;;10.66;84.81;101768.25;5093056;28;20115;-87
2022/11/05 11:38:37;;;;;;;5.85;4.10;;;;;;;10.66;83.06;101771.66;5076140;28;20057;-86
2022/11/05 11:41:19;;;;;;;10.75;4.07;;;;;;;10.70;82.80;101771.59;5091130;28;20517;-83
2022/11/05 11:43:46;;;;;;;3.65;3.35;;;;;;;10.74;83.39;101769.59;5095044;27;20607;-82
2022/11/05 11:46:17;;;;;;;7.43;4.07;;;;;;;10.81;83.82;101774.75;5142363;27;20463;-82
2022/11/05 11:48:46;;;;;;;8.20;3.92;;;;;;;10.84;84.14;101768.59;5137665;27;20146;-88
2022/11/05 11:51:39;;;;;;;10.07;4.53;;;;;;;10.82;84.53;101767.50;5137590;27;20101;-86
2022/11/05 11:54:18;;;;;;;7.15;4.22;;;;;;;10.81;83.52;101774.75;5137931;27;20044;-83
2022/11/05 11:56:46;;;;;;;4.80;4.20;;;;;;;10.87;83.82;101767.00;5137740;27;20138;-85
2022/11/05 11:59:22;;;;;;;5.55;4.15;;;;;;;10.89;83.55;101756.69;5137420;27;20039;-85
2022/11/05 12:02:36;;;;;;;7.57;4.25;;;;;;;10.90;83.97;101758.19;5137565;27;20123;-86
2022/11/05 12:05:05;;;;;;;6.55;4.13;;;;;;;10.87;82.91;101757.09;5137517;27;20044;-81
2022/11/05 12:08:20;;;;;;;8.38;4.25;;;;;;;10.91;84.21;101749.03;5137396;27;20095;-80
2022/11/05 12:11:09;;;;;;;6.28;4.00;;;;;;;10.94;83.57;101754.28;5093136;28;20112;-79
2022/11/05 12:13:52;;;;;;;6.88;4.20;;;;;;;10.95;83.91;101761.09;5077110;28;20064;-82
2022/11/05 12:16:37;;;;;;;7.03;4.68;;;;;;;10.99;83.37;101758.34;5076960;28;20118;-82
2022/11/05 12:19:21;;;;;;;9.68;4.78;;;;;;;11.03;83.01;101756.38;5093608;28;20136;-85
2022/11/05 12:22:31;;;;;;;8.18;4.25;;;;;;;11.15;83.23;101760.28;5093876;28;20484;-82
2022/11/05 12:25:27;;;;;;;5.10;4.22;;;;;;;11.21;82.80;101751.34;5093104;28;20057;-83
2022/11/05 12:28:08;;;;;;;7.07;4.97;;;;;;;11.26;82.31;101748.16;5091733;28;20052;-82
2022/11/05 12:31:19;;;;;;;8.63;5.28;;;;;;;11.38;82.51;101737.97;5093358;28;20087;-82